Time;durP1;ratioP1;P1;durP2;ratioP2;P2;SDS_P1;SDS_P2;PMS_P1;PMS_P2;Temp;Humidity;BMP_temperature;BMP_pressure;BME280_temperature;BME280_humidity;BME280_pressure;Samples;Min_cycle;Max_cycle;Signal;HPM_P1;HPM_P2
2023/08/24 00:01:37;;;;;;;;;;;;;;;21.64;94.09;99687.75;5032309;28;832;-64
2023/08/24 00:04:04;;;;;;;;;;;;;;;21.67;93.80;99683.94;5032434;28;828;-65
2023/08/24 00:06:31;;;;;;;;;;;;;;;21.72;93.51;99686.13;5032368;28;846;-65
2023/08/24 00:08:59;;;;;;;;;;;;;;;21.75;93.25;99685.13;5032477;28;904;-64
2023/08/24 00:11:26;;;;;;;;;;;;;;;21.80;93.30;99680.88;5031969;28;879;-64
2023/08/24 00:13:52;;;;;;;;;;;;;;;21.84;93.07;99681.47;5032025;28;899;-64
2023/08/24 00:16:20;;;;;;;;;;;;;;;21.88;92.47;99686.91;5031753;28;840;-64
2023/08/24 00:18:47;;;;;;;;;;;;;;;21.91;92.37;99680.28;5031896;28;847;-64
2023/08/24 00:21:19;;;;;;;;;;;;;;;21.95;92.11;99678.84;5031905;28;1945;-64
2023/08/24 00:23:46;;;;;;;;;;;;;;;22.02;91.98;99681.28;5031819;28;977;-65
2023/08/24 00:26:12;;;;;;;;;;;;;;;22.07;91.60;99676.25;5031922;28;820;-65
2023/08/24 00:28:39;;;;;;;;;;;;;;;22.08;91.62;99674.97;5031765;28;872;-64
2023/08/24 00:31:06;;;;;;;;;;;;;;;22.10;91.37;99684.47;5031757;28;836;-64
2023/08/24 00:33:33;;;;;;;;;;;;;;;22.11;91.51;99683.22;5032035;28;832;-65
2023/08/24 00:36:02;;;;;;;;;;;;;;;22.11;90.98;99683.22;5031826;28;828;-65
2023/08/24 00:38:28;;;;;;;;;;;;;;;22.10;91.18;99678.06;5031694;28;828;-65
2023/08/24 00:40:55;;;;;;;;;;;;;;;22.10;91.07;99681.66;5031637;28;1886;-65
2023/08/24 00:43:23;;;;;;;;;;;;;;;22.12;90.95;99681.19;5031838;28;898;-65
2023/08/24 00:45:55;;;;;;;;;;;;;;;22.13;90.67;99677.88;5031327;28;1300;-65
2023/08/24 00:48:25;;;;;;;;;;;;;;;22.16;90.43;99678.94;5031669;28;864;-67
2023/08/24 00:50:52;;;;;;;;;;;;;;;22.16;89.95;99678.94;5031974;28;864;-66
2023/08/24 00:53:20;;;;;;;;;;;;;;;22.16;89.82;99676.91;5031690;28;898;-65
2023/08/24 00:55:48;;;;;;;;;;;;;;;22.13;90.16;99682.75;5031570;28;867;-65
2023/08/24 00:58:14;;;;;;;;;;;;;;;22.08;90.26;99680.59;5031520;28;832;-65
2023/08/24 01:00:41;;;;;;;;;;;;;;;22.01;90.84;99676.13;5031382;28;1914;-64
2023/08/24 01:03:07;;;;;;;;;;;;;;;21.94;90.96;99670.91;5031813;28;911;-65
2023/08/24 01:05:33;;;;;;;;;;;;;;;21.90;91.37;99671.09;5031620;28;825;-65
2023/08/24 01:08:01;;;;;;;;;;;;;;;21.87;91.79;99671.28;5031767;28;833;-66
2023/08/24 01:10:33;;;;;;;;;;;;;;;21.84;91.89;99675.06;5031626;28;801;-66
2023/08/24 01:13:22;;;;;;;;;;;;;;;21.79;92.60;99668.06;5031363;28;837;-65
2023/08/24 01:15:55;;;;;;;;;;;;;;;21.75;92.69;99664.69;5031583;28;824;-65
2023/08/24 01:18:26;;;;;;;;;;;;;;;21.74;93.01;99668.72;5031710;28;871;-64
2023/08/24 01:20:54;;;;;;;;;;;;;;;21.77;93.00;99659.34;5031076;28;1914;-65
2023/08/24 01:23:39;;;;;;;;;;;;;;;21.80;92.74;99652.75;5031395;28;832;-65
2023/08/24 01:26:18;;;;;;;;;;;;;;;21.79;92.67;99656.81;5031296;28;848;-65
2023/08/24 01:28:45;;;;;;;;;;;;;;;21.77;92.80;99650.91;5032020;28;813;-65
2023/08/24 01:31:13;;;;;;;;;;;;;;;21.72;93.24;99655.19;5034947;28;903;-65
2023/08/24 01:33:40;;;;;;;;;;;;;;;21.70;93.13;99651.28;5034952;28;927;-65
2023/08/24 01:36:08;;;;;;;;;;;;;;;21.69;93.38;99642.06;5034987;28;777;-65
2023/08/24 01:38:35;;;;;;;;;;;;;;;21.70;93.21;99651.28;5034906;28;860;-65
2023/08/24 01:41:20;;;;;;;;;;;;;;;21.70;93.18;99643.63;5034763;28;1957;-65
2023/08/24 01:43:49;;;;;;;;;;;;;;;21.67;93.32;99644.59;5034781;28;1372;-65
2023/08/24 01:46:17;;;;;;;;;;;;;;;21.64;93.12;99639.94;5034944;28;846;-65
2023/08/24 01:48:44;;;;;;;;;;;;;;;21.60;93.36;99642.94;5034756;28;844;-65
2023/08/24 01:51:12;;;;;;;;;;;;;;;21.57;93.53;99640.28;5034682;28;909;-65
2023/08/24 01:53:39;;;;;;;;;;;;;;;21.53;94.00;99637.69;5035044;28;895;-64
2023/08/24 01:56:10;;;;;;;;;;;;;;;21.51;94.13;99639.44;5034603;28;848;-64
2023/08/24 01:58:37;;;;;;;;;;;;;;;21.45;94.52;99630.88;5034481;28;891;-64
2023/08/24 02:01:04;;;;;;;;;;;;;;;21.34;95.26;99631.41;5034389;28;1981;-65
2023/08/24 02:03:31;;;;;;;;;;;;;;;21.15;96.57;99635.63;5034445;28;816;-65
2023/08/24 02:05:58;;;;;;;;;;;;;;;21.00;98.06;99633.53;5034410;28;860;-65
2023/08/24 02:08:25;;;;;;;;;;;;;;;20.93;99.02;99630.31;5034233;28;849;-64
2023/08/24 02:10:52;;;;;;;;;;;;;;;20.89;99.42;99626.88;5034366;28;903;-64
2023/08/24 02:13:19;;;;;;;;;;;;;;;20.82;100.00;99619.59;5034127;28;840;-64
2023/08/24 02:15:45;;;;;;;;;;;;;;;20.82;100.00;99613.22;5034289;28;926;-64
2023/08/24 02:18:12;;;;;;;;;;;;;;;20.87;100.00;99618.16;5034040;28;836;-64
2023/08/24 02:20:39;;;;;;;;;;;;;;;20.84;100.00;99622.72;5034219;28;1893;-65
2023/08/24 02:23:05;;;;;;;;;;;;;;;20.82;100.00;99619.59;5034074;28;824;-65
2023/08/24 02:25:32;;;;;;;;;;;;;;;20.83;100.00;99618.38;5034001;28;846;-65
2023/08/24 02:27:59;;;;;;;;;;;;;;;20.84;100.00;99627.56;5034105;28;907;-65
2023/08/24 02:30:26;;;;;;;;;;;;;;;20.82;100.00;99625.22;5033916;28;1061;-65
2023/08/24 02:32:52;;;;;;;;;;;;;;;20.75;100.00;99619.97;5033845;28;900;-64
2023/08/24 02:35:19;;;;;;;;;;;;;;;20.70;100.00;99627.03;5033864;28;888;-64
2023/08/24 02:37:46;;;;;;;;;;;;;;;20.63;100.00;99629.41;5033796;28;797;-64
2023/08/24 02:40:13;;;;;;;;;;;;;;;20.57;100.00;99624.44;5033451;28;1964;-64
2023/08/24 02:42:39;;;;;;;;;;;;;;;20.50;100.00;99627.53;5033892;28;1018;-64
2023/08/24 02:45:06;;;;;;;;;;;;;;;20.44;100.00;99618.25;5033445;28;1773;-65
2023/08/24 02:47:33;;;;;;;;;;;;;;;20.34;100.00;99630.75;5033588;28;815;-65
2023/08/24 02:50:00;;;;;;;;;;;;;;;20.32;100.00;99619.22;5033537;28;839;-65
2023/08/24 02:52:27;;;;;;;;;;;;;;;20.44;100.00;99623.06;5033773;28;942;-64
2023/08/24 02:54:53;;;;;;;;;;;;;;;20.48;100.00;99632.09;5033478;28;963;-64
2023/08/24 02:57:20;;;;;;;;;;;;;;;20.42;100.00;99626.38;5033341;28;943;-64
2023/08/24 02:59:47;;;;;;;;;;;;;;;20.37;100.00;99621.38;5033171;28;1914;-65
2023/08/24 03:02:14;;;;;;;;;;;;;;;20.37;100.00;99624.97;5033377;28;813;-65
2023/08/24 03:04:40;;;;;;;;;;;;;;;20.43;100.00;99622.28;5033255;28;910;-65
2023/08/24 03:07:08;;;;;;;;;;;;;;;20.45;100.00;99621.81;5033262;28;844;-65
2023/08/24 03:09:37;;;;;;;;;;;;;;;20.37;100.00;99621.38;5033183;28;832;-65
2023/08/24 03:12:04;;;;;;;;;;;;;;;20.37;100.00;99618.56;5033013;28;928;-65
2023/08/24 03:14:31;;;;;;;;;;;;;;;20.46;100.00;99623.38;5033142;28;836;-65
2023/08/24 03:16:58;;;;;;;;;;;;;;;20.46;100.00;99623.38;5015249;28;1154;-65
2023/08/24 03:19:25;;;;;;;;;;;;;;;20.43;100.00;99619.47;5033203;28;1947;-65
2023/08/24 03:21:51;;;;;;;;;;;;;;;20.38;100.00;99623.72;5033034;28;887;-64
2023/08/24 03:24:18;;;;;;;;;;;;;;;20.35;100.00;99621.06;5032969;28;864;-64
2023/08/24 03:26:45;;;;;;;;;;;;;;;20.34;100.00;99622.34;5032731;28;832;-64
2023/08/24 03:29:11;;;;;;;;;;;;;;;20.32;100.00;99619.22;5032827;28;856;-64
2023/08/24 03:31:37;;;;;;;;;;;;;;;20.25;100.00;99620.34;5032727;28;897;-64
2023/08/24 03:34:04;;;;;;;;;;;;;;;20.23;100.00;99619.25;5032760;28;872;-64
2023/08/24 03:36:31;;;;;;;;;;;;;;;20.20;100.00;99620.97;5032740;28;895;-64
2023/08/24 03:38:57;;;;;;;;;;;;;;;20.17;100.00;99625.50;5032584;28;837;-64
2023/08/24 03:41:24;;;;;;;;;;;;;;;20.15;100.00;99625.22;5032694;28;844;-65
2023/08/24 03:43:50;;;;;;;;;;;;;;;20.15;100.00;99630.81;5032526;28;1193;-64
2023/08/24 03:46:17;;;;;;;;;;;;;;;20.19;100.00;99631.44;5032604;28;827;-64
2023/08/24 03:48:44;;;;;;;;;;;;;;;20.27;100.00;99629.06;5032450;28;828;-64
2023/08/24 03:51:11;;;;;;;;;;;;;;;20.39;100.00;99636.47;5032026;28;832;-64
2023/08/24 03:53:38;;;;;;;;;;;;;;;20.45;100.00;99639.44;5032351;28;899;-64
2023/08/24 03:56:05;;;;;;;;;;;;;;;20.45;100.00;99636.63;5032309;28;852;-64
2023/08/24 03:58:31;;;;;;;;;;;;;;;20.47;100.00;99642.53;5032289;28;915;-64
2023/08/24 04:00:58;;;;;;;;;;;;;;;20.50;100.00;99644.38;5032201;28;1985;-64
2023/08/24 04:03:24;;;;;;;;;;;;;;;20.56;100.00;99636.09;5032219;28;808;-64
2023/08/24 04:05:50;;;;;;;;;;;;;;;20.74;100.00;99643.69;5032354;28;923;-64
2023/08/24 04:08:17;;;;;;;;;;;;;;;20.94;100.00;99635.44;5032174;28;872;-64
2023/08/24 04:10:44;;;;;;;;;;;;;;;21.13;100.00;99635.34;5032328;28;828;-64
2023/08/24 04:13:10;;;;;;;;;;;;;;;21.24;100.00;99635.56;5032139;28;848;-64
2023/08/24 04:15:37;;;;;;;;;;;;;;;21.40;100.00;99635.13;5032181;28;929;-65
2023/08/24 04:18:04;;;;;;;;;;;;;;;21.49;100.00;99625.09;5032153;28;809;-65
2023/08/24 04:20:31;;;;;;;;;;;;;;;21.55;99.84;99631.56;5031973;28;1947;-65
2023/08/24 04:22:57;;;;;;;;;;;;;;;21.66;99.11;99633.81;5032186;28;828;-65
2023/08/24 04:25:24;;;;;;;;;;;;;;;21.81;98.02;99629.75;5032079;28;852;-64
2023/08/24 04:27:51;;;;;;;;;;;;;;;21.94;97.48;99634.31;5032033;28;813;-64
2023/08/24 04:30:18;;;;;;;;;;;;;;;22.03;97.04;99637.81;5032071;28;875;-64
2023/08/24 04:32:45;;;;;;;;;;;;;;;22.12;96.85;99622.84;5031998;28;911;-66
2023/08/24 04:35:11;;;;;;;;;;;;;;;22.20;96.70;99638.09;5031908;28;859;-65
2023/08/24 04:37:39;;;;;;;;;;;;;;;22.28;96.67;99623.66;5031874;28;824;-65
2023/08/24 04:40:07;;;;;;;;;;;;;;;22.38;96.71;99625.88;5032148;28;1894;-65
2023/08/24 04:42:34;;;;;;;;;;;;;;;22.53;96.05;99620.19;5031831;28;940;-65
2023/08/24 04:45:01;;;;;;;;;;;;;;;22.72;94.77;99631.19;5031813;28;1122;-65
2023/08/24 04:47:27;;;;;;;;;;;;;;;22.89;94.11;99626.56;5031968;28;828;-65
2023/08/24 04:49:54;;;;;;;;;;;;;;;23.08;93.12;99629.16;5031926;28;914;-65
2023/08/24 04:52:21;;;;;;;;;;;;;;;23.25;92.16;99627.31;5031753;28;836;-66
2023/08/24 04:54:47;;;;;;;;;;;;;;;23.43;90.92;99629.81;5031743;28;1179;-66
2023/08/24 04:57:14;;;;;;;;;;;;;;;23.69;89.44;99640.34;5031587;28;863;-66
2023/08/24 04:59:41;;;;;;;;;;;;;;;23.94;87.56;99646.50;5031656;28;1975;-66
2023/08/24 05:02:08;;;;;;;;;;;;;;;24.39;84.58;99636.38;5031569;28;1284;-66
2023/08/24 05:04:35;;;;;;;;;;;;;;;25.12;79.68;99641.69;5033830;28;1330;-65
2023/08/24 05:07:02;;;;;;;;;;;;;;;25.61;76.42;99636.72;5035409;28;1422;-65
2023/08/24 05:09:29;;;;;;;;;;;;;;;25.76;74.37;99650.66;5035574;28;836;-65
2023/08/24 05:11:55;;;;;;;;;;;;;;;25.74;73.69;99649.63;5035315;28;1217;-65
2023/08/24 05:14:22;;;;;;;;;;;;;;;25.72;72.96;99655.78;5035366;28;836;-66
2023/08/24 05:16:49;;;;;;;;;;;;;;;25.77;71.96;99657.84;5035187;28;1074;-66
2023/08/24 05:19:16;;;;;;;;;;;;;;;25.95;69.88;99661.53;5035422;28;1910;-66
2023/08/24 05:21:42;;;;;;;;;;;;;;;25.96;68.81;99674.38;5035162;28;895;-65
2023/08/24 05:24:10;;;;;;;;;;;;;;;25.91;68.51;99675.16;5035068;28;838;-65
2023/08/24 05:26:36;;;;;;;;;;;;;;;25.90;68.00;99662.28;5035151;28;824;-65
2023/08/24 05:29:03;;;;;;;;;;;;;;;26.01;66.85;99668.75;5035044;28;841;-65
2023/08/24 05:31:30;;;;;;;;;;;;;;;26.16;65.27;99671.31;5035063;28;868;-65
2023/08/24 05:33:57;;;;;;;;;;;;;;;26.28;64.62;99667.19;5035247;28;808;-65
2023/08/24 05:36:24;;;;;;;;;;;;;;;26.43;64.26;99664.09;5034948;28;876;-65
2023/08/24 05:38:54;;;;;;;;;;;;;;;26.47;63.56;99675.94;5034885;28;823;-65
2023/08/24 05:41:21;;;;;;;;;;;;;;;26.48;62.66;99671.06;5035061;28;1886;-66
2023/08/24 05:43:46;;;;;;;;;;;;;;;26.62;62.04;99674.94;5035234;28;1281;-65
2023/08/24 05:46:13;;;;;;;;;;;;;;;26.88;60.53;99677.44;5034796;28;832;-66
2023/08/24 05:48:39;;;;;;;;;;;;;;;27.13;59.75;99674.81;5034725;28;884;-66
2023/08/24 05:51:07;;;;;;;;;;;;;;;27.33;58.68;99680.16;5034597;28;828;-66
2023/08/24 05:53:34;;;;;;;;;;;;;;;27.77;56.44;99684.06;5034637;28;852;-66
2023/08/24 05:56:01;;;;;;;;;;;;;;;28.23;54.80;99682.50;5034750;28;903;-66
2023/08/24 05:58:27;;;;;;;;;;;;;;;28.46;53.69;99683.09;5034551;28;871;-65
2023/08/24 06:01:00;;;;;;;;;;;;;;;28.38;53.72;99681.31;5034350;28;1969;-65
2023/08/24 06:03:27;;;;;;;;;;;;;;;28.39;53.55;99686.47;5016692;28;1627;-66
2023/08/24 06:05:53;;;;;;;;;;;;;;;28.47;53.53;99687.44;5034383;28;832;-65
2023/08/24 06:08:21;;;;;;;;;;;;;;;28.71;52.60;99683.13;5034567;28;880;-66
2023/08/24 06:10:47;;;;;;;;;;;;;;;29.10;51.62;99688.44;5034277;28;864;-65
2023/08/24 06:13:14;;;;;;;;;;;;;;;29.62;50.43;99692.19;5034571;28;884;-66
2023/08/24 06:15:41;;;;;;;;;;;;;;;29.96;48.50;99677.47;5033714;28;879;-66
2023/08/24 06:18:08;;;;;;;;;;;;;;;30.08;47.88;99689.47;5034248;28;836;-66
2023/08/24 06:20:35;;;;;;;;;;;;;;;30.43;46.66;99687.66;5034233;28;1878;-65
2023/08/24 06:23:02;;;;;;;;;;;;;;;30.85;44.80;99685.81;5034242;28;876;-65
2023/08/24 06:25:29;;;;;;;;;;;;;;;31.26;44.19;99689.47;5034047;28;891;-65
2023/08/24 06:27:56;;;;;;;;;;;;;;;31.73;42.60;99683.81;5033988;28;987;-66
2023/08/24 06:30:22;;;;;;;;;;;;;;;32.26;41.61;99696.38;5034140;28;821;-66
2023/08/24 06:32:49;;;;;;;;;;;;;;;32.85;39.93;99698.78;5033944;28;821;-65
2023/08/24 06:35:15;;;;;;;;;;;;;;;33.20;38.84;99694.44;5034083;28;840;-66
2023/08/24 06:37:43;;;;;;;;;;;;;;;33.72;38.36;99695.28;5034097;28;887;-66
2023/08/24 06:40:10;;;;;;;;;;;;;;;34.49;36.75;99703.28;5033881;28;1941;-67
2023/08/24 06:42:37;;;;;;;;;;;;;;;34.83;35.68;99708.63;5033863;28;931;-66
2023/08/24 06:45:04;;;;;;;;;;;;;;;35.03;35.20;99704.00;5033718;28;1236;-65
2023/08/24 06:47:31;;;;;;;;;;;;;;;35.00;34.76;99713.78;5033930;28;932;-65
2023/08/24 06:49:57;;;;;;;;;;;;;;;34.49;35.63;99709.78;5033995;28;876;-65
2023/08/24 06:52:24;;;;;;;;;;;;;;;33.96;36.33;99713.31;5033771;28;876;-66
2023/08/24 06:54:53;;;;;;;;;;;;;;;33.63;36.43;99715.88;5033621;28;859;-66
2023/08/24 06:57:20;;;;;;;;;;;;;;;33.19;37.09;99718.69;5033482;28;923;-66
2023/08/24 06:59:46;;;;;;;;;;;;;;;32.74;38.04;99712.06;5033300;28;1914;-66
2023/08/24 07:02:13;;;;;;;;;;;;;;;32.44;38.34;99706.06;5033423;28;821;-66
2023/08/24 07:04:41;;;;;;;;;;;;;;;32.30;39.01;99714.72;5033370;28;937;-67
2023/08/24 07:07:08;;;;;;;;;;;;;;;32.22;38.83;99711.03;5033357;28;856;-66
2023/08/24 07:09:35;;;;;;;;;;;;;;;32.39;38.71;99687.75;5033235;28;929;-64
2023/08/24 07:12:07;;;;;;;;;;;;;;;33.14;37.53;99717.53;5033165;28;891;-65
2023/08/24 07:14:33;;;;;;;;;;;;;;;34.14;35.55;99717.19;5033289;28;864;-66
2023/08/24 07:17:00;;;;;;;;;;;;;;;34.94;33.85;99721.81;5033377;28;836;-66
2023/08/24 07:19:27;;;;;;;;;;;;;;;35.54;32.89;99716.50;5032960;28;1971;-67
2023/08/24 07:21:53;;;;;;;;;;;;;;;35.90;32.14;99716.19;5033010;28;867;-66
2023/08/24 07:24:20;;;;;;;;;;;;;;;36.23;31.56;99713.31;5032735;28;847;-66
2023/08/24 07:26:47;;;;;;;;;;;;;;;36.74;31.37;99703.34;5031979;28;847;-65
2023/08/24 07:29:13;;;;;;;;;;;;;;;37.32;30.12;99706.03;5032963;28;872;-65
2023/08/24 07:31:40;;;;;;;;;;;;;;;37.63;29.06;99711.44;5032688;28;892;-66
2023/08/24 07:34:06;;;;;;;;;;;;;;;37.78;28.67;99707.59;5015046;28;1367;-66
2023/08/24 07:36:32;;;;;;;;;;;;;;;37.49;28.74;99708.13;5032602;28;887;-66
2023/08/24 07:38:59;;;;;;;;;;;;;;;37.45;29.29;99701.25;5032888;28;867;-66
2023/08/24 07:41:25;;;;;;;;;;;;;;;37.93;28.05;99695.81;5032813;28;1890;-64
2023/08/24 07:43:51;;;;;;;;;;;;;;;37.93;28.31;99695.81;5032693;28;1205;-65
2023/08/24 07:46:18;;;;;;;;;;;;;;;37.79;28.70;99700.47;5032734;28;824;-65
2023/08/24 07:48:44;;;;;;;;;;;;;;;37.71;28.58;99696.91;5032856;28;1314;-66
2023/08/24 07:51:11;;;;;;;;;;;;;;;37.70;27.80;99696.13;5032484;28;1220;-67
2023/08/24 07:53:38;;;;;;;;;;;;;;;37.86;27.80;99693.81;5032417;28;867;-66
2023/08/24 07:56:05;;;;;;;;;;;;;;;38.03;27.52;99695.13;5032697;28;1227;-66
2023/08/24 07:58:32;;;;;;;;;;;;;;;38.29;27.18;99691.47;5032632;28;836;-66
2023/08/24 08:00:59;;;;;;;;;;;;;;;38.28;26.99;99687.06;5032246;28;1977;-67
2023/08/24 08:03:26;;;;;;;;;;;;;;;37.80;27.17;99688.31;5032263;28;820;-66
2023/08/24 08:05:52;;;;;;;;;;;;;;;38.02;27.13;99687.81;5014613;28;1323;-66
2023/08/24 08:08:19;;;;;;;;;;;;;;;37.93;27.00;99683.53;5032374;28;871;-67
2023/08/24 08:10:46;;;;;;;;;;;;;;;37.93;27.29;99687.16;5032146;28;997;-68
2023/08/24 08:13:13;;;;;;;;;;;;;;;38.14;26.92;99691.72;5031929;28;896;-67
2023/08/24 08:15:40;;;;;;;;;;;;;;;38.31;26.69;99685.84;5032093;28;819;-67
2023/08/24 08:18:07;;;;;;;;;;;;;;;38.68;26.29;99682.19;5031988;28;840;-66
2023/08/24 08:20:34;;;;;;;;;;;;;;;38.89;25.81;99681.59;5032133;28;1961;-68
2023/08/24 08:23:02;;;;;;;;;;;;;;;38.71;26.26;99675.22;5032099;28;895;-66
2023/08/24 08:25:28;;;;;;;;;;;;;;;39.07;25.81;99668.59;5031932;28;1228;-68
2023/08/24 08:27:55;;;;;;;;;;;;;;;39.32;25.46;99668.25;5031860;28;884;-66
2023/08/24 08:30:21;;;;;;;;;;;;;;;39.28;25.01;99667.19;5031754;28;817;-72
2023/08/24 08:32:50;;;;;;;;;;;;;;;38.90;25.61;99660.00;5031837;28;864;-73
2023/08/24 08:35:18;;;;;;;;;;;;;;;38.85;26.04;99661.09;5031900;28;1244;-66
2023/08/24 08:37:46;;;;;;;;;;;;;;;38.98;25.27;99654.88;5031758;28;1382;-66
2023/08/24 08:40:13;;;;;;;;;;;;;;;38.93;25.46;99656.69;5031853;28;1921;-67
2023/08/24 08:42:40;;;;;;;;;;;;;;;39.37;25.43;99652.75;5031794;28;997;-66
2023/08/24 08:45:10;;;;;;;;;;;;;;;39.61;24.74;99645.09;5031861;28;1221;-66
2023/08/24 08:47:37;;;;;;;;;;;;;;;39.34;25.11;99642.38;5031706;28;872;-66
2023/08/24 08:50:04;;;;;;;;;;;;;;;39.12;25.17;99649.41;5031638;28;828;-65
2023/08/24 08:52:32;;;;;;;;;;;;;;;39.02;25.51;99640.75;5031590;28;864;-66
2023/08/24 08:54:59;;;;;;;;;;;;;;;39.00;25.66;99646.38;5013868;28;1410;-68
2023/08/24 08:57:25;;;;;;;;;;;;;;;38.96;25.51;99646.06;5031638;28;883;-65
2023/08/24 08:59:52;;;;;;;;;;;;;;;39.23;25.77;99648.03;5031442;28;1905;-66
2023/08/24 09:02:20;;;;;;;;;;;;;;;39.13;25.69;99643.00;5031813;28;875;-66
2023/08/24 09:04:48;;;;;;;;;;;;;;;38.97;25.87;99636.78;5031521;28;911;-66
2023/08/24 09:07:15;;;;;;;;;;;;;;;38.57;26.61;99643.09;5031502;28;832;-66
2023/08/24 09:09:43;;;;;;;;;;;;;;;38.18;26.86;99637.22;5031525;28;816;-65
2023/08/24 09:12:09;;;;;;;;;;;;;;;38.37;26.69;99645.94;5031495;28;907;-66
2023/08/24 09:14:36;;;;;;;;;;;;;;;38.69;26.54;99626.72;5031489;28;828;-65
2023/08/24 09:17:03;;;;;;;;;;;;;;;38.77;26.33;99638.09;5031298;28;918;-67
2023/08/24 09:19:30;;;;;;;;;;;;;;;38.78;26.52;99633.88;5031398;28;1945;-65
2023/08/24 09:21:58;;;;;;;;;;;;;;;38.95;26.06;99630.09;5031388;28;867;-67
2023/08/24 09:24:34;;;;;;;;;;;;;;;38.65;26.36;99634.31;5013667;28;1203;-66
2023/08/24 09:27:16;;;;;;;;;;;;;;;38.43;26.72;99633.31;5031244;28;969;-67
2023/08/24 09:29:47;;;;;;;;;;;;;;;38.03;26.92;99631.66;5031292;28;880;-66
2023/08/24 09:32:14;;;;;;;;;;;;;;;37.92;26.56;99636.63;5031214;28;891;-66
2023/08/24 09:34:41;;;;;;;;;;;;;;;37.52;27.40;99631.22;5031273;28;843;-66
2023/08/24 09:37:15;;;;;;;;;;;;;;;37.80;27.50;99621.25;5031237;28;836;-66
2023/08/24 09:39:42;;;;;;;;;;;;;;;37.87;27.51;99620.34;5031212;28;1878;-67
2023/08/24 09:42:09;;;;;;;;;;;;;;;37.90;27.49;99610.50;5031424;28;906;-67
2023/08/24 09:44:36;;;;;;;;;;;;;;;37.59;29.07;99622.50;5031274;28;1404;-68
2023/08/24 09:47:08;;;;;;;;;;;;;;;37.33;29.09;99611.69;5031331;28;833;-68
2023/08/24 09:49:35;;;;;;;;;;;;;;;37.35;29.30;99614.75;5031636;28;929;-65
2023/08/24 09:52:02;;;;;;;;;;;;;;;37.43;28.61;99608.84;5034780;28;849;-66
2023/08/24 09:54:30;;;;;;;;;;;;;;;37.38;29.21;99599.13;5034634;28;836;-65
2023/08/24 09:56:58;;;;;;;;;;;;;;;37.27;29.69;99602.56;5034618;28;904;-70
2023/08/24 09:59:27;;;;;;;;;;;;;;;37.25;29.91;99603.13;5034708;28;1910;-67
2023/08/24 10:01:56;;;;;;;;;;;;;;;37.40;29.75;99602.94;5034555;28;911;-67
2023/08/24 10:04:24;;;;;;;;;;;;;;;37.07;30.34;99598.75;5034454;28;856;-68
2023/08/24 10:06:58;;;;;;;;;;;;;;;37.02;30.67;99597.63;5034427;28;926;-69
2023/08/24 10:09:48;;;;;;;;;;;;;;;36.70;30.95;99587.84;5034598;28;832;-72
2023/08/24 10:43:15;;;;;;;;;;;;;;;36.96;34.47;99568.34;5777940;23;1508;-58
2023/08/24 10:46:03;;;;;;;;;;;;;;;37.11;36.04;99576.06;5014260;28;824;-59
2023/08/24 10:48:53;;;;;;;;;;;;;;;37.04;38.13;99571.13;5021954;28;883;-58
2023/08/24 10:51:23;;;;;;;;;;;;;;;36.85;39.17;99566.75;5028371;28;1315;-59
2023/08/24 10:53:52;;;;;;;;;;;;;;;37.09;37.80;99565.13;5033536;28;863;-60
2023/08/24 11:06:04;;;;;;;;;;;;;;;36.85;38.68;99552.38;5024494;28;709;-61
2023/08/24 11:08:46;;;;;;;;;;;;;;;36.97;38.49;99550.47;5032578;28;830;-59
2023/08/24 11:11:25;;;;;;;;;;;;;;;36.99;37.32;99547.00;5033239;28;927;-59
2023/08/24 11:14:10;;;;;;;;;;;;;;;37.08;37.85;99540.53;5033043;28;832;-59
2023/08/24 11:16:43;;;;;;;;;;;;;;;37.15;36.58;99530.28;5033163;28;844;-59
2023/08/24 11:19:15;;;;;;;;;;;;;;;37.07;36.66;99538.25;5033389;28;840;-59
2023/08/24 11:21:43;;;;;;;;;;;;;;;37.18;35.74;99529.88;5033151;28;836;-59
2023/08/24 11:24:12;;;;;;;;;;;;;;;37.29;35.32;99531.44;5033044;28;887;-60
2023/08/24 11:26:47;;;;;;;;;;;;;;;37.14;34.75;99534.53;5033022;28;789;-59
2023/08/24 11:29:15;;;;;;;;;;;;;;;37.13;35.20;99530.91;5032802;28;839;-59
2023/08/24 11:31:42;;;;;;;;;;;;;;;37.23;34.42;99535.94;5032878;28;828;-59
2023/08/24 11:34:08;;;;;;;;;;;;;;;37.41;33.45;99517.25;5033031;28;855;-58
2023/08/24 11:36:46;;;;;;;;;;;;;;;37.67;33.66;99520.72;5032738;28;848;-58
2023/08/24 11:39:17;;;;;;;;;;;;;;;37.99;32.58;99522.50;5032699;28;832;-59
2023/08/24 11:41:44;;;;;;;;;;;;;;;37.95;32.20;99525.06;5032581;28;923;-60
2023/08/24 11:44:11;;;;;;;;;;;;;;;37.74;32.66;99517.69;5032415;28;1210;-59
2023/08/24 11:46:39;;;;;;;;;;;;;;;38.15;32.78;99520.91;5032547;28;1105;-59
2023/08/24 11:49:06;;;;;;;;;;;;;;;38.65;30.98;99516.69;5032471;28;919;-59
2023/08/24 11:51:34;;;;;;;;;;;;;;;39.06;29.51;99524.72;5032313;28;884;-59
2023/08/24 11:54:00;;;;;;;;;;;;;;;39.34;28.81;99531.78;5032461;28;911;-59
2023/08/24 11:56:28;;;;;;;;;;;;;;;39.82;28.19;99527.97;5032377;28;852;-59
2023/08/24 11:58:55;;;;;;;;;;;;;;;40.06;27.65;99526.03;5032287;28;808;-59
2023/08/24 12:01:22;;;;;;;;;;;;;;;39.43;27.35;99519.47;5032280;28;1977;-59
2023/08/24 12:03:48;;;;;;;;;;;;;;;38.14;28.72;99504.94;5032557;28;883;-59
2023/08/24 12:06:16;;;;;;;;;;;;;;;37.53;30.70;99500.91;5032264;28;940;-58
2023/08/24 12:08:45;;;;;;;;;;;;;;;37.81;30.50;99504.53;5032200;28;816;-59
2023/08/24 12:11:15;;;;;;;;;;;;;;;37.98;29.86;99533.28;5032217;28;894;-59
2023/08/24 12:25:55;;;;;;;;;;;;;;;34.00;35.88;99497.94;5031559;28;788;-61
2023/08/24 12:28:22;;;;;;;;;;;;;;;33.75;36.51;99489.91;5031940;28;817;-58
2023/08/24 12:30:52;;;;;;;;;;;;;;;33.43;36.81;99496.16;5032141;28;859;-58
2023/08/24 12:33:24;;;;;;;;;;;;;;;33.19;37.93;99501.09;5031832;28;959;-58
2023/08/24 12:35:52;;;;;;;;;;;;;;;32.83;38.82;99496.16;5014235;28;1247;-58
2023/08/24 12:38:19;;;;;;;;;;;;;;;32.56;40.05;99504.25;5032133;28;914;-58
2023/08/24 12:40:45;;;;;;;;;;;;;;;32.38;40.77;99494.59;5031739;28;1894;-58
2023/08/24 12:43:13;;;;;;;;;;;;;;;32.35;40.81;99496.50;5031840;28;984;-58
2023/08/24 12:45:39;;;;;;;;;;;;;;;32.05;41.80;99491.34;5012205;28;1262;-59
2023/08/24 12:48:07;;;;;;;;;;;;;;;31.73;42.70;99494.50;5012131;28;1281;-58
2023/08/24 12:50:37;;;;;;;;;;;;;;;31.62;43.48;99495.56;5012238;28;1263;-59
2023/08/24 12:53:06;;;;;;;;;;;;;;;31.38;44.87;99487.28;5011982;28;864;-58
2023/08/24 12:55:36;;;;;;;;;;;;;;;31.17;44.94;99508.00;5011908;28;842;-58
2023/08/24 12:58:03;;;;;;;;;;;;;;;31.05;45.21;99518.94;5011965;28;808;-58
2023/08/24 13:00:30;;;;;;;;;;;;;;;30.92;45.17;99516.13;5011949;28;2001;-58
2023/08/24 13:02:57;;;;;;;;;;;;;;;30.82;45.32;99523.56;5011782;28;808;-58
2023/08/24 13:05:23;;;;;;;;;;;;;;;30.77;45.49;99533.78;5011933;28;872;-58
2023/08/24 13:07:51;;;;;;;;;;;;;;;30.68;46.31;99535.00;4994231;28;1399;-58
2023/08/24 13:10:18;;;;;;;;;;;;;;;30.57;47.71;99548.69;4994195;28;1196;-58
2023/08/24 13:12:44;;;;;;;;;;;;;;;30.45;48.10;99553.84;5011967;28;864;-58
2023/08/24 13:15:15;;;;;;;;;;;;;;;30.47;48.24;99560.56;5011820;28;838;-58
2023/08/24 13:17:41;;;;;;;;;;;;;;;30.50;49.68;99567.22;5011764;28;832;-58
2023/08/24 13:20:08;;;;;;;;;;;;;;;30.41;51.14;99567.69;5011630;28;1941;-58
2023/08/24 13:22:35;;;;;;;;;;;;;;;30.32;51.95;99566.00;5011765;28;832;-58
2023/08/24 13:25:02;;;;;;;;;;;;;;;30.23;53.66;99570.03;5012843;28;872;-58
2023/08/24 13:27:29;;;;;;;;;;;;;;;30.20;54.02;99579.69;5015506;28;932;-58
2023/08/24 13:29:56;;;;;;;;;;;;;;;30.15;54.80;99577.72;5015262;28;852;-58
2023/08/24 13:32:23;;;;;;;;;;;;;;;30.03;56.33;99579.97;4997786;28;1200;-59
2023/08/24 13:34:50;;;;;;;;;;;;;;;29.90;56.68;99594.94;5015262;28;844;-58
2023/08/24 13:37:17;;;;;;;;;;;;;;;29.86;57.24;99605.13;5015653;28;816;-58
2023/08/24 13:39:44;;;;;;;;;;;;;;;29.45;59.22;99607.00;5015397;28;1949;-58
2023/08/24 13:42:12;;;;;;;;;;;;;;;28.86;61.83;99612.38;5015171;28;836;-59
2023/08/24 13:44:39;;;;;;;;;;;;;;;28.05;67.37;99612.13;5026614;28;1241;-58
2023/08/24 13:47:06;;;;;;;;;;;;;;;27.45;72.49;99599.34;5034809;28;907;-58
2023/08/24 13:49:33;;;;;;;;;;;;;;;27.09;77.20;99578.63;5034795;28;828;-58
2023/08/24 13:51:59;;;;;;;;;;;;;;;26.95;79.84;99571.22;5034830;28;855;-58
2023/08/24 13:54:26;;;;;;;;;;;;;;;26.96;81.49;99555.75;5034753;28;832;-58
2023/08/24 13:56:56;;;;;;;;;;;;;;;27.20;81.66;99547.38;5034640;28;868;-58
2023/08/24 13:59:23;;;;;;;;;;;;;;;27.66;79.34;99556.41;5034583;28;1969;-58